• Join FlightAware (Why Join?)
  • Login
  • US Flag 
03:45AM EST


 

Airport Tracker/Info


-or-


 

Live Flight TrackerFlight Track Log ✈ SWA1969 ✈ 23-Apr-2013 ✈ KMDW - KPHX

Flight Track Log - Related Links

Times and Time Zones

All times are in EDT time to prevent confusion due to time zone crossing. See the SWA1969 flight status page for this flight to view local times or setup timezone preferences in your user account.

Time Position Orientation Groundspeed Altitude Reporting Facility
EDT Latitude Longitude Course Direction KTS MPH feet Rate Location/Type
01:21PM 41.7667 -87.7833 255° West 159 183 2,200  Level Chicago TRACON
01:22PM 41.7500 -87.8667 255° West 248 285 3,000 480 Climbing Chicago TRACON
01:23PM 41.7467 -87.9211 265° West 246 283 3,000 660 Level Chicago Center
01:24PM 41.7467 -88.0114 270° West 246 283 4,100 960 Climbing Chicago Center
01:26PM 41.7844 -88.1964 285° West 258 297 6,000 600 Climbing Chicago Center
01:27PM 41.7889 -88.2917 274° West 258 297 6,100 1,500 Climbing Chicago Center
01:28PM 41.7975 -88.4078 276° West 263 303 9,200 2,400 Climbing Chicago Center
01:29PM 41.7931 -88.5119 267° West 290 334 11,100 1,740 Climbing Chicago Center
01:30PM 41.7675 -88.6294 254° West 330 380 12,800 2,100 Climbing Chicago Center
01:31PM 41.7403 -88.7558 254° West 353 406 15,500 2,400 Climbing Chicago Center
01:32PM 41.7133 -88.8828 254° West 357 411 17,800 1,980 Climbing Chicago Center
01:33PM 41.6786 -89.0417 254° West 373 429 19,600 1,860 Climbing Chicago Center
01:34PM 41.6483 -89.1817 254° West 392 451 21,700 1,920 Climbing Chicago Center
01:35PM 41.6183 -89.3222 254° West 395 455 23,600 1,680 Climbing Chicago Center
01:36PM 41.5881 -89.4636 254° West 397 457 25,200 1,560 Climbing Chicago Center
01:37PM 41.5506 -89.6272 253° West 403 464 26,900 1,680 Climbing Chicago Center
01:38PM 41.5203 -89.7692 254° West 400 460 28,700 1,680 Climbing Chicago Center
01:39PM 41.4886 -89.9078 253° West 395 455 30,400 1,560 Climbing Chicago Center
01:40PM 41.4586 -90.0428 254° West 385 443 32,000 960 Climbing Chicago Center
01:41PM 41.4286 -90.1756 253° West 378 435 32,500 720 Climbing Chicago Center
01:42PM 41.3975 -90.3092 253° West 380 437 33,500 1,500 Climbing Chicago Center
01:43PM 41.3622 -90.4664 253° West 373 429 35,700 1,200 Climbing Chicago Center
01:44PM 41.3328 -90.5908 253° West 360 414 36,000 120 Climbing Chicago Center
01:45PM 41.2986 -90.7169 250° West 364 419 36,000  Level Chicago Center
01:46PM 41.2628 -90.8397 249° West 358 412 36,000  Level Chicago Center
01:47PM 41.2258 -90.9619 248° West 356 410 36,000  Level Chicago Center
01:48PM 41.1892 -91.0847 248° West 358 412 36,000  Level Chicago Center
01:49PM 41.1467 -91.2306 249° West 355 409 36,000  Level Chicago Center
01:51PM 41.1094 -91.3503 248° West 352 405 36,000  Level Chicago Center
01:52PM 41.0739 -91.4708 249° West 352 405 36,000  Level Chicago Center
01:53PM 41.0378 -91.5900 248° West 349 402 36,000  Level Chicago Center
01:54PM 40.9967 -91.7239 248° West 353 406 36,000  Level Chicago Center
01:55PM 40.9606 -91.8417 248° West 349 402 36,000  Level Chicago Center
01:56PM 40.9242 -91.9619 248° West 353 406 36,000  Level Chicago Center
01:57PM 40.8878 -92.0800 248° West 350 403 36,000  Level Chicago Center
01:58PM 40.8514 -92.1986 248° West 352 405 36,000  Level Chicago Center
01:59PM 40.8061 -92.3414 247° West 354 407 36,000  Level Chicago Center
02:00PM 40.7694 -92.4597 248° West 353 406 36,000  Level Chicago Center
02:01PM 40.7314 -92.5792 247° West 356 410 36,000  Level Chicago Center
02:02PM 40.6939 -92.6975 247° West 356 410 36,000  Level Chicago Center
02:03PM 40.6483 -92.8389 247° West 354 407 36,000  Level Chicago Center
02:04PM 40.6117 -92.9556 248° West 352 405 36,000  Level Chicago Center
02:05PM 40.5744 -93.0714 247° West 349 402 36,000  Level Chicago Center
02:06PM 40.5372 -93.1897 248° West 353 406 36,000  Level Chicago Center
02:07PM 40.4911 -93.3294 247° West 352 405 36,000  Level Chicago Center
02:08PM 40.4458 -93.4697 247° West 351 404 36,000  Level Kansas City Center
02:09PM 40.4083 -93.5869 247° West 352 405 36,000  Level Kansas City Center
02:10PM 40.3689 -93.7047 246° West 353 406 36,000  Level Kansas City Center
02:11PM 40.3308 -93.8214 247° West 352 405 36,000  Level Kansas City Center
02:12PM 40.2917 -93.9383 246° West 352 405 36,000  Level Kansas City Center
02:13PM 40.2528 -94.0567 247° West 355 409 36,000  Level Kansas City Center
02:14PM 40.2078 -94.1911 246° West 354 407 36,000  Level Kansas City Center
02:15PM 40.1692 -94.3042 246° West 356 410 36,000  Level Kansas City Center
02:16PM 40.1250 -94.4361 246° West 355 409 36,000  Level Kansas City Center
02:18PM 40.0867 -94.5483 246° West 354 407 36,000  Level Kansas City Center
02:19PM 40.0431 -94.6786 246° West 353 406 36,000  Level Kansas City Center
02:20PM 40.0058 -94.7894 246° West 350 403 36,000  Level Kansas City Center
02:21PM 39.9617 -94.9186 246° West 350 403 36,000  Level Kansas City Center
02:22PM 39.9211 -95.0297 245° Southwest 355 409 36,000  Level Kansas City Center
02:23PM 39.8794 -95.1386 244° Southwest 352 405 36,000  Level Kansas City Center
02:24PM 39.8328 -95.2681 245° Southwest 353 406 36,000  Level Kansas City Center
02:25PM 39.7919 -95.3781 244° Southwest 354 407 36,000  Level Kansas City Center
02:26PM 39.7453 -95.5033 244° Southwest 348 400 36,000  Level Kansas City Center
02:27PM 39.7044 -95.6133 244° Southwest 353 406 36,000  Level Kansas City Center
02:28PM 39.6569 -95.7392 244° Southwest 350 403 36,000  Level Kansas City Center
02:29PM 39.6144 -95.8489 243° Southwest 357 411 36,000  Level Kansas City Center
02:30PM 39.5672 -95.9758 244° Southwest 352 405 36,000  Level Kansas City Center
02:31PM 39.5256 -96.0833 243° Southwest 350 403 36,000  Level Kansas City Center
02:32PM 39.4847 -96.1911 244° Southwest 351 404 36,000  Level Kansas City Center
02:33PM 39.4408 -96.3028 243° Southwest 350 403 36,000  Level Kansas City Center
02:34PM 39.3897 -96.4392 244° Southwest 350 403 36,000  Level Kansas City Center
02:35PM 39.3467 -96.5492 243° Southwest 348 400 36,000  Level Kansas City Center
02:36PM 39.3036 -96.6564 243° Southwest 350 403 36,000  Level Kansas City Center
02:37PM 39.2550 -96.7825 244° Southwest 352 405 36,000  Level Kansas City Center
02:38PM 39.2119 -96.8914 243° Southwest 355 409 36,000  Level Kansas City Center
02:39PM 39.1636 -97.0167 244° Southwest 351 404 36,000  Level Kansas City Center
02:40PM 39.1214 -97.1239 243° Southwest 350 403 36,000  Level Kansas City Center
02:41PM 39.0806 -97.2322 244° Southwest 350 403 36,000  Level Kansas City Center
02:42PM 39.0317 -97.3567 243° Southwest 349 402 36,000  Level Kansas City Center
02:43PM 38.9892 -97.4628 243° Southwest 349 402 36,000  Level Kansas City Center
02:44PM 38.9397 -97.5858 243° Southwest 347 399 36,000  Level Kansas City Center
02:45PM 38.9031 -97.6947 247° West 348 400 36,000  Level Kansas City Center
02:46PM 38.8631 -97.8253 249° West 351 404 36,000  Level Kansas City Center
02:47PM 38.8300 -97.9275 247° West 356 410 36,000  Level Kansas City Center
02:48PM 38.7872 -98.0675 249° West 354 407 36,000  Level Kansas City Center
02:49PM 38.7503 -98.1842 248° West 354 407 36,000  Level Kansas City Center
02:50PM 38.7136 -98.3008 248° West 355 409 36,000  Level Kansas City Center
02:51PM 38.6789 -98.4164 249° West 351 404 36,000  Level Kansas City Center
02:52PM 38.6417 -98.5314 248° West 351 404 36,000  Level Kansas City Center
02:53PM 38.6047 -98.6464 248° West 351 404 36,000  Level Kansas City Center
02:55PM 38.5692 -98.7614 248° West 350 403 36,000  Level Kansas City Center
02:56PM 38.5244 -98.8986 247° West 350 403 36,000  Level Kansas City Center
02:57PM 38.4872 -99.0144 248° West 352 405 36,000  Level Kansas City Center
02:58PM 38.4514 -99.1303 248° West 353 406 36,000  Level Kansas City Center
02:59PM 38.4125 -99.2458 247° West 354 407 36,000  Level Kansas City Center
03:00PM 38.3744 -99.3606 247° West 353 406 36,000  Level Kansas City Center
03:01PM 38.3369 -99.4764 248° West 354 407 36,000  Level Kansas City Center
03:02PM 38.2953 -99.6061 248° West 354 407 36,000  Level Kansas City Center
03:03PM 38.2589 -99.7153 247° West 352 405 36,000  Level Kansas City Center
03:04PM 38.2172 -99.8422 247° West 349 402 36,000  Level Kansas City Center
03:05PM 38.1808 -99.9503 247° West 348 400 36,000  Level Kansas City Center
03:06PM 38.1397 -100.0764 248° West 346 398 36,000  Level Kansas City Center
03:07PM 38.1031 -100.1833 246° West 345 397 36,000  Level Kansas City Center
03:08PM 38.0600 -100.3108 247° West 351 404 36,000  Level Kansas City Center
03:09PM 38.0228 -100.4197 247° West 352 405 36,000  Level Kansas City Center
03:10PM 37.9867 -100.5286 247° West 352 405 36,000  Level Kansas City Center
03:11PM 37.9431 -100.6558 247° West 353 406 36,000  Level Kansas City Center
03:12PM 37.9025 -100.7628 244° Southwest 353 406 36,000  Level Kansas City Center
03:13PM 37.8442 -100.8797 238° Southwest 354 407 36,000  Level Kansas City Center
03:14PM 37.7956 -100.9797 238° Southwest 355 409 36,000  Level Kansas City Center
03:15PM 37.7361 -101.1019 238° Southwest 353 406 36,000  Level Kansas City Center
03:16PM 37.6903 -101.1958 238° Southwest 351 404 36,000  Level Kansas City Center
03:17PM 37.6336 -101.3122 238° Southwest 351 404 36,000  Level Kansas City Center
03:18PM 37.5844 -101.4139 239° Southwest 353 406 36,000  Level Kansas City Center
03:19PM 37.5269 -101.5300 238° Southwest 351 404 36,000  Level Kansas City Center
03:20PM 37.4775 -101.6322 239° Southwest 356 410 36,000  Level Kansas City Center
03:21PM 37.4211 -101.7506 239° Southwest 354 407 36,000  Level Kansas City Center
03:22PM 37.3908 -101.8628 251° West 354 407 36,000  Level Kansas City Center
03:23PM 37.3689 -101.9367 250° West 354 407 36,000  Level Albuquerque Center
03:24PM 37.3306 -102.0661 250° West 354 407 36,000  Level Albuquerque Center
03:25PM 37.2975 -102.1769 249° West 353 406 36,000  Level Albuquerque Center
03:26PM 37.2608 -102.3092 251° West 356 410 36,000  Level Albuquerque Center
03:27PM 37.2269 -102.4192 249° West 355 409 36,000  Level Albuquerque Center
03:28PM 37.1942 -102.5281 249° West 352 405 36,000  Level Albuquerque Center
03:29PM 37.1569 -102.6575 250° West 353 406 36,000  Level Albuquerque Center
03:30PM 37.1236 -102.7681 249° West 353 406 36,000  Level Albuquerque Center
03:31PM 37.0831 -102.8978 249° West 357 411 36,000  Level Albuquerque Center
03:32PM 37.0497 -103.0100 250° West 358 412 36,000  Level Albuquerque Center
03:33PM 37.0100 -103.1386 249° West 354 407 36,000  Level Albuquerque Center
03:34PM 36.9758 -103.2497 249° West 355 409 36,000  Level Albuquerque Center
03:35PM 36.9361 -103.3789 249° West 356 410 36,000  Level Albuquerque Center
03:36PM 36.9028 -103.4883 249° West 354 407 36,000  Level Albuquerque Center
03:37PM 36.8689 -103.5981 249° West 352 405 36,000  Level Albuquerque Center
03:38PM 36.8283 -103.7258 248° West 353 406 36,000  Level Albuquerque Center
03:39PM 36.7942 -103.8358 249° West 354 407 36,000  Level Albuquerque Center
03:40PM 36.7536 -103.9647 249° West 355 409 36,000  Level Albuquerque Center
03:42PM 36.7186 -104.0731 248° West 353 406 36,000  Level Albuquerque Center
03:43PM 36.6775 -104.2014 248° West 356 410 36,000  Level Albuquerque Center
03:44PM 36.6417 -104.3128 248° West 356 410 36,000  Level Albuquerque Center
03:45PM 36.6053 -104.4300 249° West 358 412 36,000  Level Albuquerque Center
03:46PM 36.5675 -104.5456 248° West 359 413 36,000  Level Albuquerque Center
03:47PM 36.5300 -104.6594 248° West 357 411 36,000  Level Albuquerque Center
03:48PM 36.4867 -104.7931 248° West 355 409 36,000  Level Albuquerque Center
03:49PM 36.4497 -104.9067 248° West 354 407 36,000  Level Albuquerque Center
03:50PM 36.4122 -105.0214 248° West 355 409 36,000  Level Albuquerque Center
03:51PM 36.3753 -105.1358 248° West 355 409 36,000  Level Albuquerque Center
03:52PM 36.3375 -105.2469 247° West 349 402 36,000  Level Albuquerque Center
03:53PM 36.3011 -105.3581 248° West 347 399 36,000  Level Albuquerque Center
03:54PM 36.2647 -105.4678 248° West 344 396 36,000  Level Albuquerque Center
03:55PM 36.2236 -105.5942 248° West 345 397 36,000  Level Albuquerque Center
03:56PM 36.1867 -105.7042 247° West 346 398 36,000  Level Albuquerque Center
03:57PM 36.1492 -105.8150 247° West 349 402 36,000  Level Albuquerque Center
03:58PM 36.1122 -105.9239 247° West 347 399 36,000  Level Albuquerque Center
03:59PM 36.0750 -106.0356 248° West 350 403 36,000  Level Albuquerque Center
04:00PM 36.0378 -106.1453 247° West 348 400 36,000  Level Albuquerque Center
04:01PM 35.9944 -106.2797 248° West 352 405 36,000  Level Albuquerque Center
04:02PM 35.9564 -106.3892 247° West 350 403 36,000  Level Albuquerque Center
04:03PM 35.9181 -106.5028 247° West 357 411 36,000  Level Albuquerque Center
04:04PM 35.8800 -106.6106 246° West 354 407 36,000  Level Albuquerque Center
04:05PM 35.8381 -106.7350 247° West 353 406 36,000  Level Albuquerque Center
04:06PM 35.7997 -106.8408 246° West 353 406 36,000  Level Albuquerque Center
04:07PM 35.7569 -106.9658 247° West 354 407 36,000  Level Albuquerque Center
04:08PM 35.7200 -107.0731 247° West 355 409 36,000  Level Albuquerque Center
04:09PM 35.6758 -107.1981 247° West 356 410 36,000  Level Albuquerque Center
04:10PM 35.6358 -107.3097 246° West 365 420 36,000  Level Albuquerque Center
04:11PM 35.5903 -107.4392 247° West 369 425 36,000  Level Albuquerque Center
04:12PM 35.5514 -107.5492 247° West 367 422 36,000  Level Albuquerque Center
04:14PM 35.5122 -107.6572 246° West 364 419 36,000  Level Albuquerque Center
04:15PM 35.4678 -107.7842 247° West 363 418 36,000  Level Albuquerque Center
04:16PM 35.4292 -107.8922 246° West 362 417 36,000  Level Albuquerque Center
04:17PM 35.3828 -108.0194 246° West 363 418 36,000  Level Albuquerque Center
04:18PM 35.3444 -108.1292 247° West 365 420 36,000  Level Albuquerque Center
04:19PM 35.2978 -108.2572 246° West 366 421 36,000  Level Albuquerque Center
04:20PM 35.2569 -108.3692 246° West 370 426 36,000  Level Albuquerque Center
04:21PM 35.2161 -108.4806 246° West 373 429 36,000  Level Albuquerque Center
04:22PM 35.1697 -108.6078 246° West 368 423 36,000  Level Albuquerque Center
04:23PM 35.1300 -108.7169 246° West 366 421 36,000  Level Albuquerque Center
04:24PM 35.0819 -108.8447 245° Southwest 367 422 36,000  Level Albuquerque Center
04:25PM 35.0425 -108.9539 246° West 367 422 36,000  Level Albuquerque Center
04:27PM 34.9539 -109.1933 246° West 372 428 36,000  Level Albuquerque Center
04:28PM 34.9133 -109.3044 246° West 373 429 36,000  Level Albuquerque Center
04:29PM 34.8656 -109.4344 246° West 375 432 36,000  Level Albuquerque Center
04:30PM 34.8239 -109.5428 245° Southwest 372 428 36,000  Level Albuquerque Center
04:31PM 34.7761 -109.6706 246° West 371 427 36,000  Level Albuquerque Center
04:32PM 34.7361 -109.7814 246° West 373 429 36,000  Level Albuquerque Center
04:33PM 34.6900 -109.9089 246° West 371 427 36,000  Level Albuquerque Center
04:34PM 34.6494 -110.0169 246° West 368 423 36,000  Level Albuquerque Center
04:35PM 34.6039 -110.1467 247° West 373 429 36,000  Level Albuquerque Center
04:36PM 34.5631 -110.2586 246° West 376 433 36,000 -1,080 Level Albuquerque Center
04:37PM 34.5200 -110.3611 243° Southwest 361 415 33,800 -2,220 Descending Albuquerque Center
04:38PM 34.4758 -110.4917 248° West 374 430 31,500 -2,040 Descending Albuquerque Center
04:39PM 34.4356 -110.5961 245° Southwest 352 405 29,600 -1,920 Descending Albuquerque Center
04:40PM 34.3958 -110.6983 245° Southwest 338 389 27,600 -1,920 Descending Albuquerque Center
04:41PM 34.3519 -110.7956 241° Southwest 331 381 25,700 -1,800 Descending Albuquerque Center
04:42PM 34.2906 -110.8764 227° Southwest 327 376 23,900 -2,040 Descending Albuquerque Center
04:43PM 34.2164 -110.9744 228° Southwest 328 377 21,600 -2,040 Descending Albuquerque Center
04:44PM 34.1550 -111.0533 227° Southwest 324 373 19,800 -1,860 Descending Albuquerque Center
04:45PM 34.0928 -111.1339 227° Southwest 326 375 17,800 -1,800 Descending Albuquerque Center
04:47PM 34.0300 -111.2136 226° Southwest 327 376 16,100 -1,740 Descending Albuquerque Center
04:48PM 33.9689 -111.2928 227° Southwest 324 373 14,300 -1,800 Descending Albuquerque Center
04:49PM 33.9089 -111.3692 227° Southwest 315 362 12,500 -1,440 Descending Albuquerque Center
04:50PM 33.8458 -111.4364 222° Southwest 301 346 11,400 -840 Descending Albuquerque Center
04:51PM 33.7786 -111.4928 215° Southwest 293 337 10,900 -780 Descending Albuquerque Center
04:52PM 33.7044 -111.5567 216° Southwest 274 315 9,800 -1,020 Descending Albuquerque Center
04:53PM 33.6489 -111.6047 216° Southwest 249 287 8,900 -900 Descending Albuquerque Center
04:54PM 33.5953 -111.6497 215° Southwest 237 273 8,000 -660 Descending Albuquerque Center
04:56PM 33.4947 -111.7344 215° Southwest 217 250 7,000 -780 Descending Albuquerque Center
04:57PM 33.4481 -111.7764 217° Southwest 211 243 5,700 -1,140 Descending Albuquerque Center
04:58PM 33.4408 -111.8356 262° West 187 215 4,700 -1,260 Descending Albuquerque Center
04:59PM 33.4403 -111.9011 269° West 164 189 3,100 -1,440 Descending Albuquerque Center
05:00PM 33.4414 -111.9500 272° West 151 174 1,800 -960 Descending Albuquerque Center
05:01PM 33.4394 -112.0033 268° West 149 171 1,200 -600 Descending Albuquerque Center
05:03PM 33.4333 -112.0000 90° East  Level FlightAware Approximate